createdAt,value
2023-08-03T00:00:50.130Z,78.26
2023-08-03T00:03:18.983Z,76.43
2023-08-03T00:05:48.657Z,75.64
2023-08-03T00:08:17.327Z,75.32
2023-08-03T00:10:47.223Z,77.53
2023-08-03T00:13:16.005Z,74.62
2023-08-03T00:15:47.562Z,77.12
2023-08-03T00:18:16.331Z,74.92
2023-08-03T00:20:45.066Z,74.89
2023-08-03T00:23:13.565Z,75.33
2023-08-03T00:25:42.085Z,76.82
2023-08-03T00:28:12.039Z,75.93
2023-08-03T00:30:41.330Z,76.88
2023-08-03T00:33:09.869Z,76.04
2023-08-03T00:35:38.405Z,74.83
2023-08-03T00:38:06.890Z,74.84
2023-08-03T00:40:36.093Z,75.40
2023-08-03T00:43:05.817Z,76.01
2023-08-03T00:45:35.992Z,75.83
2023-08-03T00:48:04.905Z,76.70
2023-08-03T00:50:33.615Z,76.99
2023-08-03T00:53:02.207Z,74.54
2023-08-03T00:55:30.741Z,76.25
2023-08-03T00:58:00.617Z,75.96
2023-08-03T01:00:29.253Z,75.83
2023-08-03T01:02:59.667Z,76.42
2023-08-03T01:05:28.413Z,77.04
2023-08-03T01:07:58.119Z,76.20
2023-08-03T01:10:27.266Z,78.38
2023-08-03T01:12:56.096Z,77.86
2023-08-03T01:15:24.865Z,78.15
2023-08-03T01:17:53.535Z,76.37
2023-08-03T01:20:24.272Z,76.97
2023-08-03T01:22:54.214Z,76.79
2023-08-03T01:25:22.825Z,75.59
2023-08-03T01:27:51.561Z,77.64
2023-08-03T01:30:20.093Z,77.21
2023-08-03T01:32:48.641Z,77.25
2023-08-03T01:35:17.490Z,77.11
2023-08-03T01:37:46.135Z,75.69
2023-08-03T01:40:16.655Z,75.50
2023-08-03T01:42:45.429Z,76.51
2023-08-03T01:45:14.135Z,77.32
2023-08-03T01:47:42.736Z,77.72
2023-08-03T01:50:11.790Z,78.97
2023-08-03T01:52:40.342Z,77.98
2023-08-03T01:55:10.123Z,78.52
2023-08-03T01:57:40.068Z,77.57
2023-08-03T02:00:09.706Z,78.09
2023-08-03T02:02:38.648Z,77.50
2023-08-03T02:05:07.907Z,78.90
2023-08-03T02:07:55.857Z,78.74
2023-08-03T02:10:26.151Z,79.92
2023-08-03T02:12:56.397Z,80.13
2023-08-03T02:15:26.755Z,79.88
2023-08-03T02:17:55.362Z,79.13
2023-08-03T02:20:24.158Z,80.39
2023-08-03T02:22:52.907Z,81.65
2023-08-03T02:25:25.018Z,82.34
2023-08-03T02:27:55.379Z,82.25
2023-08-03T02:30:24.064Z,81.63
2023-08-03T02:32:52.740Z,81.10
2023-08-03T02:35:21.336Z,83.67
2023-08-03T02:37:50.105Z,85.31
2023-08-03T02:40:18.798Z,84.60
2023-08-03T02:42:47.356Z,83.59
2023-08-03T02:45:17.491Z,82.70
2023-08-03T02:47:46.094Z,84.96
2023-08-03T02:50:14.964Z,83.77
2023-08-03T02:52:43.515Z,83.65
2023-08-03T02:55:12.339Z,84.50
2023-08-03T02:57:40.900Z,86.43
2023-08-03T03:00:11.020Z,86.41
2023-08-03T03:02:41.031Z,88.07
2023-08-03T03:05:10.501Z,89.27
2023-08-03T03:07:39.073Z,89.88
2023-08-03T03:10:08.471Z,90.64
2023-08-03T03:12:37.023Z,92.19
2023-08-03T03:15:06.336Z,91.99
2023-08-03T03:17:35.424Z,94.57
2023-08-03T03:20:07.161Z,93.84
2023-08-03T03:22:36.443Z,93.89
2023-08-03T03:25:05.323Z,93.01
2023-08-03T03:27:34.021Z,95.15
2023-08-03T03:30:02.559Z,94.12
2023-08-03T03:32:31.179Z,94.09
2023-08-03T03:35:00.031Z,95.57
2023-08-03T03:37:29.970Z,96.27
2023-08-03T03:39:58.526Z,95.09
2023-08-03T03:42:27.088Z,95.12
2023-08-03T03:44:55.627Z,93.66
2023-08-03T03:47:24.540Z,94.10
2023-08-03T03:49:53.159Z,93.38
2023-08-03T03:52:21.699Z,92.72
2023-08-03T03:54:51.624Z,92.71
2023-08-03T03:57:20.178Z,92.20
2023-08-03T03:59:48.932Z,92.17
2023-08-03T04:02:17.702Z,90.94
2023-08-03T04:04:46.273Z,92.16
2023-08-03T04:07:14.808Z,91.14
2023-08-03T04:09:43.311Z,90.23
2023-08-03T04:12:14.386Z,90.18
2023-08-03T04:14:42.941Z,89.56
2023-08-03T04:17:11.477Z,89.08
2023-08-03T04:19:40.238Z,90.70
2023-08-03T04:22:09.350Z,89.23
2023-08-03T04:24:40.069Z,88.61
2023-08-03T04:27:09.552Z,89.06
2023-08-03T04:29:42.472Z,89.92
2023-08-03T04:32:11.092Z,87.34
2023-08-03T04:34:40.611Z,88.30
2023-08-03T04:37:09.170Z,87.02
2023-08-03T04:39:37.960Z,84.04
2023-08-03T04:42:07.260Z,85.06
2023-08-03T04:44:36.092Z,85.56
2023-08-03T04:47:06.833Z,83.00
2023-08-03T04:49:35.589Z,85.44
2023-08-03T04:52:04.283Z,84.32
2023-08-03T04:54:33.009Z,85.45
2023-08-03T04:57:01.788Z,83.88
2023-08-03T04:59:30.357Z,84.95
2023-08-03T05:01:59.257Z,84.61
2023-08-03T05:04:29.400Z,84.88
2023-08-03T05:06:58.176Z,85.02
2023-08-03T05:09:27.274Z,85.91
2023-08-03T05:11:56.012Z,88.19
2023-08-03T05:14:24.510Z,90.48
2023-08-03T05:16:53.263Z,91.02
2023-08-03T05:19:21.810Z,90.32
2023-08-03T05:21:51.713Z,90.19
2023-08-03T05:24:20.253Z,89.73
2023-08-03T05:26:48.805Z,89.61
2023-08-03T05:29:17.448Z,89.71
2023-08-03T05:31:49.460Z,89.86
2023-08-03T05:34:18.344Z,89.59
2023-08-03T05:36:46.922Z,88.50
2023-08-03T05:39:17.619Z,87.90
2023-08-03T05:41:46.428Z,87.72
2023-08-03T05:44:15.787Z,88.00
2023-08-03T05:46:44.402Z,86.90
2023-08-03T05:49:14.684Z,85.33
2023-08-03T05:51:43.619Z,86.21
2023-08-03T05:54:17.323Z,85.96
2023-08-03T05:56:47.713Z,84.40
2023-08-03T05:59:21.801Z,83.13
2023-08-03T06:01:52.021Z,83.78
2023-08-03T06:04:21.638Z,81.89
2023-08-03T06:06:50.470Z,81.64
2023-08-03T06:09:23.846Z,80.43
2023-08-03T06:11:54.541Z,80.83
2023-08-03T06:14:23.601Z,81.60
2023-08-03T06:16:52.162Z,80.25
2023-08-03T06:19:20.953Z,79.13
2023-08-03T06:21:49.514Z,80.12
2023-08-03T06:24:23.281Z,80.58
2023-08-03T06:26:53.109Z,81.28
2023-08-03T06:29:21.888Z,80.38
2023-08-03T06:31:50.460Z,79.40
2023-08-03T06:34:20.027Z,78.82
2023-08-03T06:36:50.031Z,80.04
2023-08-03T06:39:20.016Z,80.09
2023-08-03T06:41:48.606Z,80.08
2023-08-03T06:44:17.320Z,80.63
2023-08-03T06:46:45.928Z,80.04
2023-08-03T06:49:14.559Z,80.98
2023-08-03T06:51:43.347Z,80.64
2023-08-03T06:54:12.518Z,79.16
2023-08-03T06:56:42.444Z,80.84
2023-08-03T06:59:11.172Z,80.34
2023-08-03T07:01:40.004Z,82.04
2023-08-03T07:04:08.601Z,80.28
2023-08-03T07:06:37.410Z,81.33
2023-08-03T07:09:05.950Z,81.28
2023-08-03T07:11:34.721Z,82.87
2023-08-03T07:14:04.662Z,80.36
2023-08-03T07:16:33.448Z,80.80
2023-08-03T07:19:02.013Z,80.44
2023-08-03T07:21:30.862Z,80.34
2023-08-03T07:23:59.376Z,79.19
2023-08-03T07:26:27.933Z,76.11
2023-08-03T07:28:56.597Z,77.62
2023-08-03T07:31:27.430Z,76.70
2023-08-03T07:33:56.015Z,76.03
2023-08-03T07:36:24.591Z,74.28
2023-08-03T07:38:54.103Z,76.86
2023-08-03T07:41:22.710Z,74.68
2023-08-03T07:43:52.677Z,75.52
2023-08-03T07:46:21.320Z,75.72
2023-08-03T07:48:51.267Z,74.71
2023-08-03T07:51:21.899Z,78.02
2023-08-03T07:53:51.368Z,78.48
2023-08-03T07:56:22.268Z,74.34
2023-08-03T07:58:52.218Z,75.16
2023-08-03T08:01:22.033Z,74.41
2023-08-03T08:03:52.723Z,74.08
2023-08-03T08:06:22.695Z,74.36
2023-08-03T08:08:53.596Z,73.82
2023-08-03T08:11:22.468Z,74.99
2023-08-03T08:13:51.011Z,74.59
2023-08-03T08:16:20.049Z,73.09
2023-08-03T08:18:48.937Z,73.40
2023-08-03T08:21:18.953Z,71.14
2023-08-03T08:23:47.511Z,68.90
2023-08-03T08:26:20.516Z,69.85
2023-08-03T08:29:03.229Z,69.50
2023-08-03T08:31:52.642Z,71.70
2023-08-03T08:34:21.374Z,70.06
2023-08-03T08:36:53.005Z,70.98
2023-08-03T08:39:21.939Z,70.89
2023-08-03T08:41:50.851Z,72.22
2023-08-03T08:44:20.500Z,71.90
2023-08-03T08:46:49.659Z,73.01
2023-08-03T08:51:58.131Z,71.87
2023-08-03T08:57:10.029Z,72.85
2023-08-03T08:59:40.269Z,72.55
2023-08-03T09:02:10.627Z,74.24
2023-08-03T09:04:39.429Z,75.47
2023-08-03T09:07:09.773Z,75.35
2023-08-03T09:09:40.164Z,76.22
2023-08-03T09:12:12.078Z,77.38
2023-08-03T09:14:51.950Z,76.61
2023-08-03T09:17:23.958Z,70.34
2023-08-03T09:25:04.782Z,73.79
2023-08-03T09:35:19.703Z,67.23
2023-08-03T09:37:51.553Z,67.20
2023-08-03T09:40:21.479Z,68.42
2023-08-03T09:42:51.336Z,67.85
2023-08-03T09:47:53.084Z,67.75
2023-08-03T09:50:22.578Z,67.06
2023-08-03T09:52:55.772Z,65.63
2023-08-03T09:55:31.067Z,68.51
2023-08-03T09:58:05.516Z,69.64
2023-08-03T10:00:35.932Z,70.06
2023-08-03T10:03:10.556Z,70.32
2023-08-03T10:05:43.929Z,66.41
2023-08-03T10:08:24.331Z,64.37
2023-08-03T10:10:57.349Z,65.90
2023-08-03T10:13:28.060Z,66.03
2023-08-03T10:15:57.582Z,64.74
2023-08-03T10:18:49.181Z,63.46
2023-08-03T10:21:15.995Z,65.59
2023-08-03T10:24:15.168Z,64.40
2023-08-03T10:26:45.572Z,61.76
2023-08-03T10:29:14.619Z,64.42
2023-08-03T10:31:55.933Z,63.21
2023-08-03T10:34:28.310Z,63.07
2023-08-03T10:36:59.170Z,60.52
2023-08-03T10:39:54.070Z,63.60
2023-08-03T10:42:34.310Z,61.75
2023-08-03T10:45:29.787Z,58.71
2023-08-03T10:48:31.556Z,59.19
2023-08-03T10:51:04.418Z,57.77
2023-08-03T10:53:33.195Z,59.54
2023-08-03T10:56:12.151Z,60.08
2023-08-03T10:58:46.436Z,64.11
2023-08-03T11:01:17.354Z,66.54
2023-08-03T11:03:46.224Z,63.40
2023-08-03T11:06:15.387Z,62.92
2023-08-03T11:08:44.060Z,62.62
2023-08-03T11:11:14.554Z,63.50
2023-08-03T11:13:46.378Z,62.54
2023-08-03T11:16:16.912Z,61.11
2023-08-03T11:18:47.740Z,62.04
2023-08-03T11:21:17.027Z,63.32
2023-08-03T11:23:45.688Z,62.87
2023-08-03T11:26:15.683Z,58.20
2023-08-03T11:28:46.072Z,59.33
2023-08-03T11:31:18.421Z,58.46
2023-08-03T11:33:54.100Z,60.70
2023-08-03T11:36:25.631Z,60.11
2023-08-03T11:38:54.909Z,61.63
2023-08-03T11:43:58.579Z,63.33
2023-08-03T11:46:29.903Z,62.07
2023-08-03T11:48:59.707Z,63.77
2023-08-03T11:51:36.381Z,63.27
2023-08-03T11:54:06.116Z,63.06
2023-08-03T11:56:44.318Z,64.81
2023-08-03T11:59:13.098Z,64.46
2023-08-03T12:01:50.230Z,63.08
2023-08-03T12:04:22.031Z,60.38
2023-08-03T12:06:54.469Z,61.04
2023-08-03T12:09:26.800Z,58.86
2023-08-03T12:12:04.371Z,58.63
2023-08-03T12:14:33.235Z,61.64
2023-08-03T12:19:36.008Z,60.17
2023-08-03T12:22:05.578Z,58.40
2023-08-03T12:24:34.268Z,60.40
2023-08-03T12:27:09.679Z,59.31
2023-08-03T12:29:42.263Z,60.68
2023-08-03T12:32:12.946Z,58.67
2023-08-03T12:34:41.746Z,60.04
2023-08-03T12:37:10.338Z,59.21
2023-08-03T12:39:38.943Z,59.35
2023-08-03T12:42:09.341Z,60.11
2023-08-03T12:44:37.918Z,60.32
2023-08-03T12:47:09.219Z,59.96
2023-08-03T12:49:38.156Z,60.00
2023-08-03T12:52:07.662Z,61.99
2023-08-03T12:54:36.514Z,60.52
2023-08-03T12:57:05.413Z,59.93
2023-08-03T12:59:35.358Z,60.43
2023-08-03T13:02:04.440Z,60.59
2023-08-03T13:04:33.057Z,59.97
2023-08-03T13:07:02.065Z,57.74
2023-08-03T13:09:30.628Z,59.26
2023-08-03T13:11:59.234Z,57.19
2023-08-03T13:14:27.899Z,58.78
2023-08-03T13:17:00.244Z,58.74
2023-08-03T13:19:30.540Z,59.13
2023-08-03T13:21:59.112Z,59.51
2023-08-03T13:24:27.772Z,57.61
2023-08-03T13:27:13.178Z,58.30
2023-08-03T13:29:45.906Z,57.84
2023-08-03T13:32:17.000Z,58.04
2023-08-03T13:34:45.818Z,59.33
2023-08-03T13:37:14.672Z,58.94
2023-08-03T13:39:43.222Z,60.05
2023-08-03T13:42:11.808Z,58.98
2023-08-03T13:44:40.365Z,60.15
2023-08-03T13:47:09.193Z,60.20
2023-08-03T13:49:39.124Z,60.87
2023-08-03T13:52:08.409Z,60.10
2023-08-03T13:54:36.961Z,59.23
2023-08-03T13:57:09.034Z,60.35
2023-08-03T13:59:37.830Z,57.45
2023-08-03T14:02:07.290Z,58.93
2023-08-03T14:04:36.841Z,59.22
2023-08-03T14:09:39.360Z,58.19
2023-08-03T14:12:08.928Z,58.97
2023-08-03T14:17:10.485Z,57.70
2023-08-03T14:19:39.612Z,57.70
2023-08-03T14:22:12.721Z,58.03
2023-08-03T14:25:42.880Z,59.79
2023-08-03T14:27:30.391Z,59.30
2023-08-03T14:30:02.259Z,58.74
2023-08-03T14:32:31.234Z,59.39
2023-08-03T14:37:33.027Z,59.03
2023-08-03T14:40:02.182Z,60.18
2023-08-03T14:42:31.947Z,59.23
2023-08-03T14:45:00.716Z,60.04
2023-08-03T14:47:29.321Z,58.50
2023-08-03T14:52:29.949Z,59.40
2023-08-03T14:55:00.136Z,59.18
2023-08-03T14:57:28.699Z,59.31
2023-08-03T14:59:57.396Z,59.72
2023-08-03T15:02:27.761Z,60.08
2023-08-03T15:04:56.792Z,59.56
2023-08-03T15:07:25.477Z,61.09
2023-08-03T15:09:55.867Z,59.07
2023-08-03T15:12:26.385Z,58.41
2023-08-03T15:14:55.426Z,59.09
2023-08-03T15:17:26.269Z,60.33
2023-08-03T15:22:29.409Z,60.80
2023-08-03T15:25:00.258Z,58.83
2023-08-03T15:27:32.568Z,58.46
2023-08-03T15:35:24.922Z,60.58
2023-08-03T15:37:54.419Z,60.38
2023-08-03T15:40:26.092Z,59.17
2023-08-03T15:45:35.693Z,60.62
2023-08-03T15:48:43.476Z,59.88
2023-08-03T15:50:59.775Z,60.92
2023-08-03T15:53:37.706Z,61.36
2023-08-03T15:56:07.758Z,62.39
2023-08-03T15:58:37.789Z,61.52
2023-08-03T16:01:07.842Z,61.92
2023-08-03T16:03:38.576Z,61.25
2023-08-03T16:06:14.100Z,61.74
2023-08-03T16:08:43.747Z,60.75
2023-08-03T16:11:12.737Z,63.48
2023-08-03T16:13:42.795Z,63.26
2023-08-03T16:16:12.514Z,62.70
2023-08-03T16:18:41.180Z,62.52
2023-08-03T16:21:11.176Z,63.36
2023-08-03T16:23:39.923Z,63.28
2023-08-03T16:26:09.683Z,61.61
2023-08-03T16:28:38.602Z,62.92
2023-08-03T16:31:16.722Z,62.61
2023-08-03T16:33:46.351Z,63.28
2023-08-03T16:36:16.739Z,65.71
2023-08-03T16:38:46.528Z,64.90
2023-08-03T16:41:15.552Z,65.11
2023-08-03T16:43:44.420Z,65.74
2023-08-03T16:46:13.039Z,67.13
2023-08-03T16:48:43.062Z,67.16
2023-08-03T16:51:11.859Z,68.86
2023-08-03T16:53:40.380Z,67.54
2023-08-03T16:56:08.895Z,68.18
2023-08-03T16:58:37.701Z,67.66
2023-08-03T17:01:06.386Z,68.52
2023-08-03T17:03:35.322Z,68.81
2023-08-03T17:06:05.411Z,69.26
2023-08-03T17:08:33.951Z,68.06
2023-08-03T17:11:02.479Z,68.62
2023-08-03T17:13:31.006Z,69.25
2023-08-03T17:16:05.090Z,68.66
2023-08-03T17:18:34.455Z,68.42
2023-08-03T17:21:04.868Z,67.93
2023-08-03T17:23:33.771Z,68.04
2023-08-03T17:26:03.040Z,66.15
2023-08-03T17:28:33.179Z,64.90
2023-08-03T17:31:08.669Z,66.23
2023-08-03T17:33:38.578Z,66.26
2023-08-03T17:36:16.647Z,65.12
2023-08-03T17:38:45.936Z,66.63
2023-08-03T17:41:15.266Z,66.88
2023-08-03T17:43:44.021Z,66.09
2023-08-03T17:46:12.616Z,65.32
2023-08-03T17:48:41.240Z,67.33
2023-08-03T17:51:12.613Z,67.52
2023-08-03T17:53:46.056Z,66.67
2023-08-03T17:56:16.288Z,66.22
2023-08-03T17:58:46.653Z,66.36
2023-08-03T18:01:17.414Z,66.71
2023-08-03T18:03:46.527Z,67.57
2023-08-03T18:06:17.433Z,68.17
2023-08-03T18:08:47.423Z,68.61
2023-08-03T18:11:16.712Z,68.82
2023-08-03T18:13:45.999Z,70.94
2023-08-03T18:16:16.396Z,70.32
2023-08-03T18:18:48.994Z,70.07
2023-08-03T18:21:21.191Z,70.38
2023-08-03T18:23:53.111Z,70.95
2023-08-03T18:26:21.665Z,72.36
2023-08-03T18:28:52.222Z,72.66
2023-08-03T18:31:21.118Z,73.05
2023-08-03T18:33:50.033Z,73.68
2023-08-03T18:36:20.463Z,75.12
2023-08-03T18:38:54.367Z,73.95
2023-08-03T18:41:25.394Z,73.72
2023-08-03T18:43:54.549Z,74.82
2023-08-03T18:46:26.377Z,75.03
2023-08-03T18:48:55.291Z,75.15
2023-08-03T18:51:24.924Z,74.94
2023-08-03T18:53:54.935Z,74.76
2023-08-03T18:56:25.877Z,75.35
2023-08-03T18:58:57.044Z,74.94
2023-08-03T19:01:27.677Z,75.77
2023-08-03T19:03:58.258Z,76.40
2023-08-03T19:06:27.708Z,76.75
2023-08-03T19:08:58.126Z,76.22
2023-08-03T19:11:26.721Z,78.17
2023-08-03T19:13:55.258Z,77.94
2023-08-03T19:16:28.719Z,77.84
2023-08-03T19:18:57.808Z,78.43
2023-08-03T19:21:26.361Z,78.49
2023-08-03T19:23:56.269Z,78.39
2023-08-03T19:26:24.870Z,78.38
2023-08-03T19:28:53.413Z,79.09
2023-08-03T19:31:21.976Z,78.51
2023-08-03T19:33:50.549Z,77.56
2023-08-03T19:36:20.142Z,78.58
2023-08-03T19:38:49.214Z,79.40
2023-08-03T19:41:20.089Z,77.70
2023-08-03T19:43:48.630Z,77.54
2023-08-03T19:46:17.380Z,79.30
2023-08-03T19:48:46.298Z,79.67
2023-08-03T19:53:46.252Z,79.86
2023-08-03T20:06:22.368Z,81.10
2023-08-03T20:08:53.223Z,81.41
2023-08-03T20:11:22.078Z,79.55
2023-08-03T20:21:27.421Z,80.63
2023-08-03T20:23:57.870Z,81.16
2023-08-03T20:29:05.658Z,82.50
2023-08-03T20:31:35.341Z,82.15
2023-08-03T20:36:36.769Z,82.04
2023-08-03T20:39:17.380Z,81.86
2023-08-03T20:41:55.959Z,83.28
2023-08-03T20:45:00.158Z,83.52
2023-08-03T20:49:47.256Z,83.92
2023-08-03T20:52:17.618Z,84.98
2023-08-03T20:54:46.454Z,84.23
2023-08-03T20:57:15.056Z,84.99
2023-08-03T20:59:45.112Z,84.26
2023-08-03T21:02:13.729Z,84.66
2023-08-03T21:04:42.377Z,85.20
2023-08-03T21:07:11.007Z,85.53
2023-08-03T21:09:39.711Z,85.21
2023-08-03T21:12:09.506Z,85.38
2023-08-03T21:14:38.090Z,86.14
2023-08-03T21:17:08.454Z,87.17
2023-08-03T21:19:37.037Z,86.98
2023-08-03T21:22:05.934Z,87.82
2023-08-03T21:24:34.517Z,87.29
2023-08-03T21:27:03.061Z,87.83
2023-08-03T21:29:31.661Z,89.66
2023-08-03T21:32:00.330Z,87.66
2023-08-03T21:34:30.405Z,89.30
2023-08-03T21:36:59.233Z,88.85
2023-08-03T21:39:27.850Z,88.25
2023-08-03T21:41:56.481Z,88.40
2023-08-03T21:44:25.199Z,88.96
2023-08-03T21:46:53.859Z,90.24
2023-08-03T21:49:22.634Z,88.50
2023-08-03T21:51:52.602Z,89.72
2023-08-03T21:54:21.186Z,90.01
2023-08-03T21:56:49.798Z,87.40
2023-08-03T21:59:18.418Z,87.46
2023-08-03T22:01:48.015Z,88.64
2023-08-03T22:04:17.050Z,88.39
2023-08-03T22:06:45.631Z,89.92
2023-08-03T22:09:16.224Z,91.87
2023-08-03T22:11:45.130Z,91.25
2023-08-03T22:14:14.079Z,90.72
2023-08-03T22:16:42.713Z,86.82
2023-08-03T22:19:12.873Z,85.57
2023-08-03T22:21:41.489Z,87.46
2023-08-03T22:24:10.581Z,90.87
2023-08-03T22:26:40.594Z,86.59
2023-08-03T22:29:10.912Z,89.14
2023-08-03T22:31:39.586Z,90.77
2023-08-03T22:34:08.188Z,88.25
2023-08-03T22:36:36.876Z,91.48
2023-08-03T22:39:05.598Z,88.30
2023-08-03T22:41:34.708Z,88.49
2023-08-03T22:44:04.852Z,87.16
2023-08-03T22:46:33.535Z,90.23
2023-08-03T22:49:02.145Z,91.12
2023-08-03T22:51:30.888Z,92.32
2023-08-03T22:53:59.708Z,91.28
2023-08-03T22:56:28.567Z,93.22
2023-08-03T22:58:57.228Z,89.36
2023-08-03T23:01:27.544Z,92.16
2023-08-03T23:03:56.317Z,88.70
2023-08-03T23:06:25.702Z,91.91
2023-08-03T23:08:54.242Z,90.34
2023-08-03T23:11:23.136Z,88.09
2023-08-03T23:13:51.707Z,87.43
2023-08-03T23:16:20.732Z,91.31
2023-08-03T23:18:52.116Z,87.66
2023-08-03T23:21:20.701Z,87.99
2023-08-03T23:23:49.519Z,86.48
2023-08-03T23:26:18.195Z,91.08
2023-08-03T23:28:47.058Z,91.75
2023-08-03T23:31:15.602Z,91.69
2023-08-03T23:33:44.171Z,90.58
2023-08-03T23:36:14.553Z,90.30
2023-08-03T23:38:43.120Z,92.52
2023-08-03T23:41:11.873Z,93.80
2023-08-03T23:43:40.510Z,92.45
2023-08-03T23:46:09.136Z,89.33
2023-08-03T23:48:37.687Z,91.95
2023-08-03T23:51:06.237Z,89.81
2023-08-03T23:53:36.188Z,92.76
2023-08-03T23:56:04.769Z,94.72
2023-08-03T23:58:33.365Z,93.06
